Time;durP1;ratioP1;P1;durP2;ratioP2;P2;SDS_P1;SDS_P2;PMS_P1;PMS_P2;Temp;Humidity;BMP_temperature;BMP_pressure;BME280_temperature;BME280_humidity;BME280_pressure;Samples;Min_cycle;Max_cycle;Signal;HPM_P1;HPM_P2
2021/05/28 00:03:35;;;;;;;5.57;2.38;;;10.60;99.90;;;;;;10076276;29;20041;-60
2021/05/28 00:08:37;;;;;;;5.90;3.33;;;10.60;99.90;;;;;;10075285;29;20140;-59
2021/05/28 00:13:39;;;;;;;5.57;2.80;;;10.60;99.90;;;;;;10075347;29;21161;-59
2021/05/28 00:18:40;;;;;;;4.45;2.60;;;10.60;99.90;;;;;;10074022;29;20136;-60
2021/05/28 00:23:42;;;;;;;6.68;3.78;;;10.70;99.90;;;;;;10077138;29;20505;-60
2021/05/28 00:28:48;;;;;;;8.50;3.08;;;10.70;99.90;;;;;;10075325;29;20056;-60
2021/05/28 00:33:50;;;;;;;8.13;3.00;;;10.70;99.90;;;;;;10073179;29;20053;-60
2021/05/28 00:38:52;;;;;;;8.27;3.47;;;10.70;99.90;;;;;;10075447;29;20045;-60
2021/05/28 00:43:54;;;;;;;6.50;3.55;;;10.70;99.90;;;;;;10072893;29;20132;-60
2021/05/28 00:48:56;;;;;;;8.07;3.70;;;10.70;99.90;;;;;;10074962;29;20081;-60
2021/05/28 00:53:58;;;;;;;9.70;3.90;;;10.70;99.90;;;;;;10074894;29;20132;-60
2021/05/28 00:59:01;;;;;;;9.32;3.83;;;10.70;99.90;;;;;;10075458;29;20073;-60
2021/05/28 01:04:03;;;;;;;6.28;4.13;;;10.70;99.90;;;;;;10074255;29;20053;-59
2021/05/28 01:09:07;;;;;;;6.10;3.78;;;10.70;99.90;;;;;;10073687;29;20117;-60
2021/05/28 01:14:08;;;;;;;5.60;3.80;;;10.70;99.90;;;;;;10074222;29;20096;-60
2021/05/28 01:19:10;;;;;;;6.45;3.53;;;10.70;99.90;;;;;;10071663;29;20057;-60
2021/05/28 01:24:12;;;;;;;6.57;4.07;;;10.50;99.90;;;;;;10068335;29;20116;-59
2021/05/28 01:29:15;;;;;;;8.85;3.63;;;10.60;99.90;;;;;;10072764;29;20445;-60
2021/05/28 01:34:17;;;;;;;7.65;3.90;;;10.50;99.90;;;;;;10073521;29;20056;-60
2021/05/28 01:39:21;;;;;;;9.23;4.00;;;10.60;99.90;;;;;;10073085;29;20057;-59
2021/05/28 01:44:24;;;;;;;10.45;3.83;;;10.70;99.90;;;;;;10069738;29;20109;-59
2021/05/28 01:49:25;;;;;;;7.75;4.28;;;10.70;99.90;;;;;;10072059;29;20113;-59
2021/05/28 01:54:27;;;;;;;8.95;4.45;;;10.70;99.90;;;;;;10072069;29;20116;-59
2021/05/28 01:59:29;;;;;;;8.07;4.68;;;10.60;99.90;;;;;;10069376;29;20069;-59
2021/05/28 02:04:31;;;;;;;8.40;7.05;;;10.70;99.90;;;;;;9834685;29;20049;-60
2021/05/28 02:09:33;;;;;;;10.90;8.13;;;10.60;99.90;;;;;;9774743;29;20121;-60
2021/05/28 02:14:35;;;;;;;9.50;7.68;;;10.70;99.90;;;;;;9783203;29;20045;-60
2021/05/28 02:19:37;;;;;;;12.18;6.30;;;10.70;99.90;;;;;;10027102;29;20060;-59
2021/05/28 02:24:38;;;;;;;11.27;5.32;;;10.70;99.90;;;;;;10070205;29;20052;-59
2021/05/28 02:29:40;;;;;;;8.65;5.63;;;10.70;99.90;;;;;;10052311;29;20041;-59
2021/05/28 02:34:42;;;;;;;10.35;5.72;;;10.70;99.90;;;;;;10069257;29;20080;-60
2021/05/28 02:39:44;;;;;;;9.30;6.07;;;10.60;99.90;;;;;;10071258;29;20668;-60
2021/05/28 02:44:45;;;;;;;10.93;5.80;;;10.60;99.90;;;;;;10068978;29;20065;-59
2021/05/28 02:49:48;;;;;;;10.35;6.25;;;10.60;99.90;;;;;;10070001;29;20088;-60
2021/05/28 02:54:50;;;;;;;11.70;6.18;;;10.60;99.90;;;;;;10067380;29;20044;-60
2021/05/28 02:59:52;;;;;;;12.00;6.50;;;10.50;99.90;;;;;;10070519;29;20628;-60
2021/05/28 03:04:53;;;;;;;14.27;6.15;;;10.50;99.90;;;;;;10071036;29;20044;-60
2021/05/28 03:09:57;;;;;;;15.15;6.40;;;10.50;99.90;;;;;;10068421;29;20049;-60
2021/05/28 03:14:58;;;;;;;12.60;6.70;;;10.50;99.90;;;;;;10070798;29;20061;-60
2021/05/28 03:20:04;;;;;;;9.32;6.38;;;10.40;99.90;;;;;;10071412;29;20517;-60
2021/05/28 03:25:09;;;;;;;12.27;6.38;;;10.40;99.90;;;;;;10068877;29;20433;-64
2021/05/28 03:30:12;;;;;;;11.00;6.07;;;10.30;99.90;;;;;;10070164;29;20052;-63
2021/05/28 03:35:14;;;;;;;10.82;6.25;;;10.30;99.90;;;;;;10069362;29;20488;-63
2021/05/28 03:40:15;;;;;;;12.32;5.75;;;10.20;99.90;;;;;;10070059;29;20061;-63
2021/05/28 03:45:17;;;;;;;11.88;6.20;;;10.20;99.90;;;;;;10069599;29;20140;-64
2021/05/28 03:50:19;;;;;;;12.25;6.82;;;10.20;99.90;;;;;;10070054;29;20057;-64
2021/05/28 03:55:21;;;;;;;14.00;7.10;;;10.00;99.90;;;;;;10067991;29;20152;-63
2021/05/28 04:00:24;;;;;;;16.48;7.30;;;10.10;99.90;;;;;;10069512;29;20113;-63
2021/05/28 04:05:26;;;;;;;12.57;7.65;;;10.10;99.90;;;;;;10068585;29;20049;-64
2021/05/28 04:10:28;;;;;;;15.82;8.40;;;10.10;99.90;;;;;;10074869;29;20125;-64
2021/05/28 04:15:29;;;;;;;15.32;7.25;;;10.10;99.90;;;;;;10074336;29;20081;-64
2021/05/28 04:20:31;;;;;;;12.98;7.30;;;10.10;99.90;;;;;;10071518;29;20052;-64
2021/05/28 04:25:33;;;;;;;13.65;7.72;;;10.20;99.90;;;;;;10075965;29;20049;-64
2021/05/28 04:30:34;;;;;;;12.77;7.30;;;10.20;99.90;;;;;;10058463;29;20045;-64
2021/05/28 04:35:36;;;;;;;15.82;6.97;;;10.30;99.90;;;;;;10073608;29;20073;-64
2021/05/28 04:40:38;;;;;;;14.75;7.82;;;10.40;99.90;;;;;;10071653;29;20061;-63
2021/05/28 04:45:40;;;;;;;12.10;7.07;;;10.40;99.90;;;;;;10073418;29;20470;-63
2021/05/28 04:50:42;;;;;;;14.70;7.88;;;10.50;99.90;;;;;;10076255;29;20053;-64
2021/05/28 04:55:43;;;;;;;14.00;8.23;;;10.60;99.90;;;;;;10071705;29;20072;-64
2021/05/28 05:00:45;;;;;;;12.18;6.65;;;10.80;99.90;;;;;;10073297;29;21168;-60
2021/05/28 05:05:47;;;;;;;12.77;6.45;;;10.90;99.90;;;;;;10074052;29;20149;-63
2021/05/28 05:10:49;;;;;;;13.20;6.88;;;11.00;99.90;;;;;;10074048;29;20453;-63
2021/05/28 05:15:51;;;;;;;11.45;5.95;;;11.10;99.90;;;;;;10072425;29;20117;-64
2021/05/28 05:20:52;;;;;;;12.98;6.82;;;11.10;99.90;;;;;;10072192;29;20132;-63
2021/05/28 05:25:54;;;;;;;11.52;6.00;;;11.10;99.90;;;;;;10074065;29;20053;-64
2021/05/28 05:30:56;;;;;;;9.82;5.55;;;11.20;99.90;;;;;;10068985;29;20121;-61
2021/05/28 05:35:57;;;;;;;11.55;4.80;;;11.30;99.90;;;;;;10069677;29;20132;-61
2021/05/28 05:41:00;;;;;;;10.65;5.28;;;11.40;99.90;;;;;;10070252;29;20053;-61
2021/05/28 05:46:02;;;;;;;9.48;4.75;;;11.40;99.90;;;;;;10073510;29;20121;-62
2021/05/28 05:51:04;;;;;;;7.28;4.22;;;11.70;99.90;;;;;;10070950;29;20063;-61
2021/05/28 05:56:06;;;;;;;5.95;3.47;;;11.80;99.90;;;;;;10069769;29;20037;-61
2021/05/28 06:01:09;;;;;;;8.00;3.47;;;11.90;99.90;;;;;;10071045;29;20565;-61
2021/05/28 06:06:10;;;;;;;5.90;3.05;;;12.20;99.90;;;;;;10056158;29;20497;-61
2021/05/28 06:11:12;;;;;;;9.23;2.80;;;12.20;99.90;;;;;;10073513;29;20072;-61
2021/05/28 06:16:14;;;;;;;2.85;1.80;;;12.30;99.90;;;;;;10073009;29;20117;-64
2021/05/28 06:21:16;;;;;;;2.95;1.60;;;12.40;99.90;;;;;;10071748;29;20073;-65
2021/05/28 06:26:17;;;;;;;4.35;1.30;;;12.50;99.90;;;;;;10052028;29;20112;-64
2021/05/28 06:31:19;;;;;;;8.63;1.70;;;12.60;99.90;;;;;;10067681;29;20057;-64
2021/05/28 06:36:23;;;;;;;4.38;1.48;;;12.60;99.90;;;;;;10070414;29;20080;-64
2021/05/28 06:41:25;;;;;;;5.35;2.10;;;12.70;99.90;;;;;;10066817;29;20057;-64
2021/05/28 06:46:27;;;;;;;2.97;1.90;;;12.70;99.90;;;;;;10068767;29;20080;-64
2021/05/28 06:51:28;;;;;;;1.73;1.00;;;12.90;99.90;;;;;;10068307;29;20088;-64
2021/05/28 06:56:31;;;;;;;2.45;0.70;;;12.90;99.90;;;;;;10069667;29;20084;-64
2021/05/28 07:01:33;;;;;;;3.88;1.50;;;13.10;99.90;;;;;;10068463;29;20053;-65
2021/05/28 07:06:35;;;;;;;4.60;1.38;;;13.20;99.90;;;;;;10067612;29;20413;-64
2021/05/28 07:11:37;;;;;;;4.05;1.75;;;13.40;99.90;;;;;;10070464;29;20064;-64
2021/05/28 07:16:39;;;;;;;2.42;1.33;;;13.70;99.90;;;;;;10067920;29;20104;-65
2021/05/28 07:21:41;;;;;;;8.55;2.35;;;13.80;99.90;;;;;;10069274;29;20049;-64
2021/05/28 07:26:43;;;;;;;3.30;2.40;;;14.00;99.90;;;;;;10070872;29;20049;-64
2021/05/28 07:31:47;;;;;;;4.97;1.48;;;14.40;99.90;;;;;;10068904;29;20056;-64
2021/05/28 07:36:49;;;;;;;2.47;0.95;;;14.50;99.90;;;;;;10068925;29;20076;-64
2021/05/28 07:41:51;;;;;;;4.00;0.70;;;14.80;99.90;;;;;;10072563;29;20068;-65
2021/05/28 07:46:53;;;;;;;3.00;0.70;;;15.00;99.90;;;;;;10076180;29;20082;-64
2021/05/28 07:51:55;;;;;;;2.63;1.00;;;15.10;99.80;;;;;;10074728;29;20114;-64
2021/05/28 07:56:57;;;;;;;0.90;0.50;;;15.10;97.90;;;;;;10072760;29;20085;-64
2021/05/28 08:01:59;;;;;;;2.85;0.82;;;15.30;98.50;;;;;;10076926;29;20064;-64
2021/05/28 08:07:00;;;;;;;2.72;0.85;;;15.40;97.30;;;;;;10077077;29;20140;-64
2021/05/28 08:12:02;;;;;;;4.70;0.63;;;15.50;97.00;;;;;;10076552;29;20508;-65
2021/05/28 08:17:04;;;;;;;1.23;0.65;;;15.50;95.10;;;;;;10074660;29;20060;-65
2021/05/28 08:22:06;;;;;;;2.45;0.80;;;15.80;97.70;;;;;;10076827;29;20112;-65
2021/05/28 08:27:07;;;;;;;3.00;1.20;;;15.90;95.30;;;;;;10076555;29;20080;-64
2021/05/28 08:32:09;;;;;;;2.90;1.25;;;16.20;96.20;;;;;;10072340;29;20052;-64
2021/05/28 08:37:11;;;;;;;2.90;0.90;;;16.10;96.60;;;;;;10082710;29;20108;-64
2021/05/28 08:42:13;;;;;;;1.33;0.50;;;16.10;93.70;;;;;;10079421;29;20075;-64
2021/05/28 08:47:16;;;;;;;1.67;0.63;;;15.80;93.50;;;;;;10074784;29;20072;-64
2021/05/28 08:52:20;;;;;;;1.15;0.60;;;16.00;93.60;;;;;;10076066;29;20592;-64
2021/05/28 08:57:23;;;;;;;3.28;0.60;;;16.00;93.50;;;;;;10075007;29;20113;-64
2021/05/28 09:02:33;;;;;;;2.17;0.47;;;15.80;93.90;;;;;;10075568;29;20454;-64
2021/05/28 09:07:35;;;;;;;1.40;0.52;;;15.70;93.90;;;;;;10070337;29;20950;-64
2021/05/28 09:12:37;;;;;;;1.13;0.50;;;15.90;93.40;;;;;;10075805;29;20052;-64
2021/05/28 09:17:50;;;;;;;2.40;0.52;;;16.10;92.90;;;;;;10072418;29;20397;-64
2021/05/28 09:23:05;;;;;;;3.70;1.20;;;16.40;91.00;;;;;;10073694;29;20200;-64
2021/05/28 09:28:09;;;;;;;1.67;0.40;;;16.50;90.50;;;;;;10029159;29;20080;-64
2021/05/28 09:33:20;;;;;;;1.35;0.40;;;16.70;87.40;;;;;;10070313;29;20053;-64
2021/05/28 09:38:23;;;;;;;1.95;0.40;;;16.60;88.80;;;;;;10072822;29;20057;-64
2021/05/28 09:43:26;;;;;;;0.60;0.30;;;16.70;86.00;;;;;;10072772;29;20057;-64
2021/05/28 09:48:30;;;;;;;0.50;0.40;;;16.60;82.90;;;;;;10068997;29;20041;-67
2021/05/28 09:53:42;;;;;;;4.15;0.30;;;16.80;87.40;;;;;;10072276;29;20412;-62
2021/05/28 09:59:00;;;;;;;2.47;0.40;;;17.10;77.10;;;;;;10072114;29;20048;-62
2021/05/28 10:04:07;;;;;;;1.95;0.20;;;17.30;82.40;;;;;;10053164;29;20079;-62
2021/05/28 10:09:09;;;;;;;;;;;18.00;77.90;;;;;;10069147;29;20050;-62
2021/05/28 10:14:11;;;;;;;2.47;0.20;;;18.40;73.60;;;;;;10071851;29;20023;-63
2021/05/28 10:19:13;;;;;;;1.25;0.10;;;18.60;71.00;;;;;;10071507;29;20821;-62
2021/05/28 10:24:16;;;;;;;0.25;0.10;;;18.70;70.50;;;;;;10069484;29;20061;-62
2021/05/28 10:29:24;;;;;;;0.25;0.20;;;18.70;72.00;;;;;;10070481;29;20112;-63
2021/05/28 10:34:28;;;;;;;0.68;0.30;;;18.60;68.20;;;;;;10069869;29;20121;-62
2021/05/28 10:39:30;;;;;;;1.40;0.20;;;18.40;69.60;;;;;;10067578;29;20140;-62
2021/05/28 10:44:40;;;;;;;2.03;0.38;;;18.10;70.10;;;;;;10069189;29;20056;-62
2021/05/28 10:49:44;;;;;;;0.63;0.20;;;18.00;71.60;;;;;;10067765;29;20573;-63
2021/05/28 10:54:53;;;;;;;0.73;0.10;;;17.80;71.20;;;;;;10069889;29;20061;-63
2021/05/28 10:59:58;;;;;;;0.35;0.10;;;17.70;69.30;;;;;;10069462;29;20049;-63
2021/05/28 11:05:00;;;;;;;0.47;0.10;;;17.50;70.80;;;;;;10069498;29;20079;-63
2021/05/28 11:10:20;;;;;;;1.05;0.20;;;17.40;72.10;;;;;;10070826;29;20045;-63
2021/05/28 11:15:26;;;;;;;1.20;0.57;;;17.60;69.50;;;;;;10073443;29;20120;-63
2021/05/28 11:20:36;;;;;;;2.58;0.20;;;18.30;66.80;;;;;;10076056;29;20482;-62
2021/05/28 11:26:13;;;;;;;0.50;0.20;;;18.70;67.40;;;;;;10075039;29;20474;-60
2021/05/28 11:31:18;;;;;;;1.55;0.28;;;18.90;68.70;;;;;;10029151;29;20091;-63
2021/05/28 11:36:38;;;;;;;1.10;0.40;;;19.00;66.70;;;;;;10074101;29;20404;-60
2021/05/28 11:41:51;;;;;;;1.42;0.30;;;19.70;66.70;;;;;;10028917;29;20485;-61
2021/05/28 11:46:53;;;;;;;2.63;0.30;;;19.50;63.50;;;;;;10079160;29;20116;-61
2021/05/28 11:51:58;;;;;;;0.40;0.20;;;19.70;66.80;;;;;;10076878;29;20525;-62
2021/05/28 11:57:03;;;;;;;0.30;0.20;;;20.10;58.50;;;;;;10075418;29;20105;-61
2021/05/28 12:02:07;;;;;;;1.10;0.10;;;20.50;60.90;;;;;;10075913;29;20108;-61
2021/05/28 12:07:10;;;;;;;0.82;0.20;;;20.80;60.10;;;;;;10078909;29;20144;-60
2021/05/28 12:12:11;;;;;;;1.10;0.20;;;20.50;60.00;;;;;;10075350;29;20144;-61
2021/05/28 12:17:29;;;;;;;0.20;0.10;;;20.90;59.70;;;;;;10074944;29;20421;-61
2021/05/28 12:22:31;;;;;;;0.63;0.20;;;20.30;58.50;;;;;;10074302;29;20496;-60
2021/05/28 12:27:37;;;;;;;0.65;0.20;;;20.00;59.20;;;;;;10074065;29;20053;-61
2021/05/28 12:32:40;;;;;;;2.08;0.20;;;19.90;61.40;;;;;;10077047;29;20061;-61
2021/05/28 12:38:14;;;;;;;1.48;0.50;;;19.80;60.20;;;;;;10075020;29;20053;-61
2021/05/28 12:43:24;;;;;;;0.38;0.17;;;19.90;61.20;;;;;;10026255;29;20045;-60
2021/05/28 12:48:46;;;;;;;1.23;0.20;;;20.60;59.90;;;;;;10074363;29;20053;-61
2021/05/28 12:53:48;;;;;;;1.10;0.20;;;20.80;58.70;;;;;;10026544;29;20597;-60
2021/05/28 12:58:52;;;;;;;1.38;0.30;;;21.10;57.30;;;;;;10070682;29;20135;-60
2021/05/28 13:04:02;;;;;;;1.83;0.30;;;21.40;57.50;;;;;;10074832;29;20057;-62
2021/05/28 13:09:13;;;;;;;2.60;0.30;;;21.20;53.20;;;;;;10071895;29;20106;-62
2021/05/28 13:14:29;;;;;;;1.02;0.15;;;20.40;56.50;;;;;;10072835;29;20053;-62
2021/05/28 13:19:30;;;;;;;0.45;0.20;;;20.10;58.70;;;;;;10070705;29;20117;-62
2021/05/28 13:24:40;;;;;;;0.28;0.20;;;20.10;59.70;;;;;;10072561;29;20408;-61
2021/05/28 13:29:54;;;;;;;1.60;0.20;;;20.50;58.50;;;;;;10070489;29;20136;-62
2021/05/28 13:34:56;;;;;;;1.38;0.30;;;21.30;57.50;;;;;;10067984;29;20128;-63
2021/05/28 13:39:58;;;;;;;1.10;0.30;;;21.90;57.10;;;;;;10062772;29;20045;-63
2021/05/28 13:45:00;;;;;;;0.85;0.20;;;21.40;54.80;;;;;;10070607;29;20045;-63
2021/05/28 13:50:03;;;;;;;0.40;0.22;;;22.20;53.00;;;;;;10057650;29;20418;-63
2021/05/28 13:55:06;;;;;;;2.53;0.20;;;22.60;54.00;;;;;;10056429;29;20132;-62
2021/05/28 14:00:14;;;;;;;1.40;0.30;;;23.10;51.50;;;;;;10398568;28;20379;-63
2021/05/28 14:05:16;;;;;;;1.08;0.20;;;23.60;47.50;;;;;;10401857;28;20046;-63
2021/05/28 14:10:19;;;;;;;1.80;0.20;;;23.50;50.50;;;;;;10410795;28;20049;-63
2021/05/28 14:15:21;;;;;;;1.23;0.30;;;23.10;49.30;;;;;;10419245;28;20068;-61
2021/05/28 14:20:25;;;;;;;1.52;0.30;;;22.50;51.80;;;;;;10398909;28;20120;-62
2021/05/28 14:25:27;;;;;;;0.50;0.30;;;21.80;52.70;;;;;;10399108;28;20531;-62
2021/05/28 14:30:31;;;;;;;0.50;0.20;;;21.40;56.30;;;;;;10412494;28;20057;-62
2021/05/28 14:35:32;;;;;;;1.30;0.30;;;20.90;56.80;;;;;;10372218;28;20486;-62
2021/05/28 14:40:34;;;;;;;0.95;0.40;;;20.60;56.70;;;;;;10368046;28;20046;-62
2021/05/28 14:45:36;;;;;;;2.65;0.55;;;20.80;55.90;;;;;;10359079;28;20116;-62
2021/05/28 14:50:38;;;;;;;1.40;0.30;;;21.20;52.60;;;;;;10352111;28;20057;-62
2021/05/28 14:55:40;;;;;;;1.38;0.50;;;21.50;54.00;;;;;;10354192;28;20046;-65
2021/05/28 15:00:42;;;;;;;2.05;0.40;;;21.80;54.50;;;;;;10367435;28;20058;-64
2021/05/28 15:05:45;;;;;;;4.80;2.90;;;21.30;54.40;;;;;;10375233;28;20468;-64
2021/05/28 15:10:47;;;;;;;0.60;0.30;;;21.10;55.60;;;;;;10325995;28;20105;-65
2021/05/28 15:15:49;;;;;;;0.90;0.30;;;20.90;53.70;;;;;;10326670;28;20132;-65
2021/05/28 15:20:51;;;;;;;0.30;0.20;;;20.70;54.50;;;;;;10346271;28;20046;-65
2021/05/28 15:25:53;;;;;;;1.17;0.30;;;20.50;55.40;;;;;;10323184;28;20375;-65
2021/05/28 15:30:54;;;;;;;1.20;0.35;;;20.80;54.60;;;;;;10343027;28;20049;-64
2021/05/28 15:35:56;;;;;;;0.57;0.22;;;21.20;55.40;;;;;;10342178;28;20050;-67
2021/05/28 15:40:58;;;;;;;1.55;0.30;;;22.30;51.90;;;;;;10324127;28;20121;-65
2021/05/28 15:46:01;;;;;;;1.85;0.38;;;22.40;49.20;;;;;;10344543;28;20046;-66
2021/05/28 15:51:03;;;;;;;0.50;0.20;;;23.10;49.80;;;;;;10329454;28;20077;-65
2021/05/28 15:56:08;;;;;;;1.50;0.40;;;23.00;49.10;;;;;;10341580;28;20061;-67
2021/05/28 16:01:10;;;;;;;5.13;0.57;;;22.50;49.40;;;;;;10347532;28;20496;-67
2021/05/28 16:06:13;;;;;;;2.40;0.30;;;21.90;49.90;;;;;;10331903;28;20128;-68
2021/05/28 16:11:15;;;;;;;1.10;0.30;;;21.50;52.40;;;;;;10334482;28;20054;-68
2021/05/28 16:16:17;;;;;;;2.63;0.82;;;21.10;52.70;;;;;;10321188;28;20046;-68
2021/05/28 16:21:19;;;;;;;1.95;0.30;;;21.00;53.80;;;;;;10328027;28;20061;-69
2021/05/28 16:26:20;;;;;;;3.80;0.30;;;20.60;54.10;;;;;;10342525;28;20053;-69
2021/05/28 16:31:22;;;;;;;0.45;0.30;;;20.50;56.70;;;;;;10339998;28;20095;-69
2021/05/28 16:36:24;;;;;;;1.85;0.35;;;20.30;57.40;;;;;;10323923;28;20438;-69
2021/05/28 16:41:28;;;;;;;0.30;0.30;;;20.20;57.20;;;;;;10324141;28;20440;-69
2021/05/28 16:46:30;;;;;;;1.00;0.40;;;20.20;56.10;;;;;;10337850;28;20090;-69
2021/05/28 16:51:31;;;;;;;0.40;0.30;;;20.40;56.00;;;;;;10332455;28;20064;-69
2021/05/28 16:56:35;;;;;;;0.50;0.32;;;20.60;56.50;;;;;;10343656;28;20058;-69
2021/05/28 17:01:37;;;;;;;1.90;0.32;;;20.70;54.00;;;;;;10338734;28;20050;-68
2021/05/28 17:06:39;;;;;;;2.65;0.20;;;20.80;54.50;;;;;;10333491;28;20992;-68
2021/05/28 17:11:41;;;;;;;0.80;0.30;;;20.80;54.90;;;;;;10327480;28;20050;-69
2021/05/28 17:16:43;;;;;;;0.77;0.30;;;20.90;52.90;;;;;;10327320;28;20137;-69
2021/05/28 17:21:45;;;;;;;1.65;0.30;;;21.10;51.70;;;;;;10324741;28;20422;-68
2021/05/28 17:26:47;;;;;;;2.38;0.28;;;21.20;53.30;;;;;;10320280;28;20050;-68
2021/05/28 17:31:49;;;;;;;0.45;0.40;;;21.10;52.10;;;;;;10328435;28;20113;-68
2021/05/28 17:36:50;;;;;;;0.88;0.22;;;21.00;53.50;;;;;;10311035;28;20054;-68
2021/05/28 17:41:52;;;;;;;0.98;0.22;;;21.00;54.20;;;;;;10342842;28;20058;-66
2021/05/28 17:46:54;;;;;;;1.25;0.30;;;20.70;53.00;;;;;;10349413;28;20069;-59
2021/05/28 17:51:59;;;;;;;1.13;0.30;;;20.30;54.90;;;;;;10339229;28;20054;-59
2021/05/28 17:57:01;;;;;;;1.15;0.55;;;20.40;54.80;;;;;;10324695;28;20188;-62
2021/05/28 18:02:03;;;;;;;2.20;0.32;;;20.40;56.80;;;;;;10331180;28;20050;-62
2021/05/28 18:07:06;;;;;;;0.80;0.30;;;20.30;55.70;;;;;;10321211;28;20050;-63
2021/05/28 18:12:09;;;;;;;1.00;0.40;;;20.00;55.90;;;;;;10322031;28;20058;-64
2021/05/28 18:17:16;;;;;;;1.77;0.30;;;19.70;56.60;;;;;;10313849;28;20496;-64
2021/05/28 18:22:18;;;;;;;1.55;0.50;;;19.40;58.00;;;;;;10324603;28;20053;-64
2021/05/28 18:27:20;;;;;;;0.73;0.50;;;19.10;59.50;;;;;;10327854;28;20065;-64
2021/05/28 18:32:22;;;;;;;2.58;1.75;;;18.40;63.20;;;;;;10333445;28;20046;-63
2021/05/28 18:37:24;;;;;;;1.35;0.60;;;18.20;63.40;;;;;;10328395;28;20046;-64
2021/05/28 18:42:25;;;;;;;1.80;0.50;;;18.00;65.40;;;;;;10332673;28;20047;-64
2021/05/28 18:47:28;;;;;;;2.08;0.70;;;17.70;64.30;;;;;;10323117;28;20081;-64
2021/05/28 18:52:31;;;;;;;2.95;1.00;;;17.50;66.00;;;;;;10324391;28;20484;-65
2021/05/28 18:57:32;;;;;;;4.90;0.88;;;17.30;68.80;;;;;;10338201;28;20061;-64
2021/05/28 19:02:38;;;;;;;3.55;0.98;;;17.10;71.20;;;;;;10328925;28;20089;-65
2021/05/28 19:07:40;;;;;;;2.63;1.10;;;16.90;73.20;;;;;;10329244;28;20050;-65
2021/05/28 19:12:42;;;;;;;3.03;1.08;;;16.70;74.10;;;;;;10338972;28;20052;-65
2021/05/28 19:17:46;;;;;;;3.28;1.20;;;16.40;77.50;;;;;;10330907;28;20128;-65
2021/05/28 19:22:48;;;;;;;3.90;1.45;;;16.20;79.20;;;;;;10336564;28;20046;-65
2021/05/28 19:27:50;;;;;;;4.93;1.10;;;16.00;80.40;;;;;;10331532;28;20046;-63
2021/05/28 19:32:52;;;;;;;2.92;1.73;;;15.90;83.10;;;;;;10349633;28;20066;-64
2021/05/28 19:37:54;;;;;;;5.75;2.47;;;15.70;86.20;;;;;;10327962;28;20054;-63
2021/05/28 19:42:58;;;;;;;3.65;1.10;;;15.50;87.80;;;;;;10329770;28;20038;-64
2021/05/28 19:48:02;;;;;;;2.65;1.08;;;15.20;85.90;;;;;;10325709;28;20126;-64
2021/05/28 19:53:07;;;;;;;2.55;0.82;;;15.10;88.40;;;;;;10338234;28;20070;-58
2021/05/28 19:58:12;;;;;;;2.70;1.02;;;14.80;91.10;;;;;;10325569;28;20041;-59
2021/05/28 20:03:15;;;;;;;2.60;0.70;;;14.60;93.10;;;;;;10320709;28;20109;-59
2021/05/28 20:08:16;;;;;;;4.38;0.80;;;14.30;94.60;;;;;;10337081;28;20042;-59
2021/05/28 20:18:40;;;;;;;1.45;0.90;;;14.00;98.10;;;;;;10279350;28;20113;-59
2021/05/28 20:23:42;;;;;;;3.65;1.63;;;13.90;99.90;;;;;;10340115;28;20389;-59
2021/05/28 20:28:45;;;;;;;3.65;0.90;;;13.70;99.90;;;;;;10320507;28;20058;-60
2021/05/28 20:33:48;;;;;;;1.88;1.20;;;13.60;99.90;;;;;;10325680;28;20111;-60
2021/05/28 20:38:49;;;;;;;6.38;2.45;;;13.40;99.90;;;;;;10316157;28;20058;-60
2021/05/28 20:43:51;;;;;;;4.53;1.98;;;13.30;99.90;;;;;;10342129;28;20385;-59
2021/05/28 20:48:55;;;;;;;11.98;3.58;;;13.20;99.90;;;;;;10341964;28;20648;-59
2021/05/28 20:53:57;;;;;;;9.52;2.42;;;13.10;99.90;;;;;;10332730;28;20077;-60
2021/05/28 20:58:59;;;;;;;4.57;1.48;;;13.00;99.90;;;;;;10330630;28;20524;-59
2021/05/28 21:04:48;;;;;;;5.10;1.63;;;12.90;99.90;;;;;;10321743;28;20738;-59
2021/05/28 21:09:26;;;;;;;2.42;1.95;;;12.70;99.90;;;;;;10339522;28;20060;-59
2021/05/28 21:14:27;;;;;;;1.30;1.13;;;12.40;99.90;;;;;;10364018;28;20060;-59
2021/05/28 21:19:29;;;;;;;2.58;1.13;;;12.20;99.90;;;;;;10330863;28;20074;-58
2021/05/28 21:24:31;;;;;;;8.43;2.00;;;12.10;99.90;;;;;;10339149;28;20093;-59
2021/05/28 21:29:33;;;;;;;4.82;2.05;;;12.10;99.90;;;;;;10337626;28;20078;-60
2021/05/28 21:34:35;;;;;;;2.83;1.17;;;12.00;99.90;;;;;;10322945;28;20085;-60
2021/05/28 21:39:37;;;;;;;4.80;0.90;;;12.00;99.90;;;;;;10319497;28;20046;-60
2021/05/28 21:44:39;;;;;;;2.17;0.80;;;12.00;99.90;;;;;;10320821;28;20100;-60
2021/05/28 21:49:40;;;;;;;1.88;0.75;;;12.10;99.90;;;;;;10324163;28;20062;-59
2021/05/28 21:54:42;;;;;;;1.92;0.80;;;12.10;99.90;;;;;;10329408;28;20061;-59
2021/05/28 21:59:44;;;;;;;1.92;0.80;;;12.10;99.90;;;;;;10330530;28;20042;-59
2021/05/28 22:04:46;;;;;;;5.75;1.10;;;12.10;99.90;;;;;;10346466;28;20472;-59
2021/05/28 22:09:47;;;;;;;1.92;1.10;;;12.10;99.90;;;;;;10313026;28;20074;-59
2021/05/28 22:14:49;;;;;;;2.90;0.95;;;12.10;99.90;;;;;;10314828;28;20050;-59
2021/05/28 22:19:51;;;;;;;3.33;0.95;;;12.10;99.90;;;;;;10326310;28;20540;-59
2021/05/28 22:24:52;;;;;;;3.60;1.35;;;12.10;99.90;;;;;;10322629;28;20050;-59
2021/05/28 22:33:53;;;;;;;2.00;0.88;;;12.10;99.90;;;;;;10334467;28;20137;-58
2021/05/28 22:35:16;;;;;;;3.90;0.98;;;12.00;99.90;;;;;;10289456;28;20046;-59
2021/05/28 22:40:17;;;;;;;1.23;0.85;;;12.00;99.90;;;;;;10342086;28;20148;-60
2021/05/28 22:45:34;;;;;;;2.13;0.80;;;11.90;99.90;;;;;;10330244;28;20495;-59
2021/05/28 22:50:49;;;;;;;4.57;0.98;;;11.90;99.90;;;;;;10327455;28;20136;-59
2021/05/28 22:55:51;;;;;;;1.98;1.35;;;11.90;99.90;;;;;;10338104;28;20050;-60
2021/05/28 23:00:54;;;;;;;4.88;1.73;;;11.70;99.90;;;;;;10322244;28;20054;-59
2021/05/28 23:05:56;;;;;;;5.38;2.65;;;11.50;99.90;;;;;;10325028;28;20054;-60
2021/05/28 23:10:58;;;;;;;4.07;2.05;;;11.30;99.90;;;;;;10330279;28;20193;-61
2021/05/28 23:16:00;;;;;;;4.03;2.00;;;11.10;99.90;;;;;;10322006;28;20283;-59
2021/05/28 23:21:02;;;;;;;5.60;2.45;;;10.80;99.90;;;;;;10329053;28;20173;-60
2021/05/28 23:26:06;;;;;;;4.70;2.33;;;10.80;99.90;;;;;;10321133;28;20054;-59
2021/05/28 23:31:08;;;;;;;3.45;2.28;;;10.70;99.90;;;;;;10336693;28;20102;-59
2021/05/28 23:36:10;;;;;;;2.60;1.85;;;10.50;99.90;;;;;;10336775;28;20460;-61
2021/05/28 23:41:16;;;;;;;5.22;2.05;;;10.40;99.90;;;;;;10323952;28;20054;-60
2021/05/28 23:46:17;;;;;;;3.25;2.53;;;10.40;99.90;;;;;;10336983;28;20072;-60
2021/05/28 23:51:24;;;;;;;4.40;1.80;;;10.40;99.90;;;;;;10325866;28;20058;-60
2021/05/28 23:56:26;;;;;;;4.78;2.03;;;10.30;99.90;;;;;;10320440;28;20552;-60
